Terminal Aerodrome Forecast
Issued by NWS

Home | Current Version | Previous Version | Text Only | Print | Product List | Glossary On
Versions: 1 2 3 4 5 6 7 8 9 10 11 12 13 14 15
000
FTUS46 KLOX 202300
TAFWJF
TAF
KWJF 202331Z 2100/2124 25015G22KT P6SM SCT250
     FM210400 27012KT P6SM SCT150
     FM212000 27015G22KT P6SM SKC=

USA.gov is the U.S. government's official web portal to all federal, state and local government web resources and services.